createdAt,value
2022-12-20T00:02:10.432Z,18.10
2022-12-20T00:04:40.944Z,15.90
2022-12-20T00:07:10.879Z,16.00
2022-12-20T00:09:39.954Z,15.70
2022-12-20T00:12:08.945Z,17.90
2022-12-20T00:14:37.954Z,18.00
2022-12-20T00:17:07.452Z,17.00
2022-12-20T00:19:39.371Z,15.90
2022-12-20T00:22:08.400Z,14.80
2022-12-20T00:24:38.679Z,16.20
2022-12-20T00:27:07.747Z,15.50
2022-12-20T00:29:37.663Z,16.80
2022-12-20T00:32:06.895Z,14.80
2022-12-20T00:34:36.135Z,15.50
2022-12-20T00:37:05.337Z,14.90
2022-12-20T00:39:34.324Z,15.00
2022-12-20T00:42:03.247Z,16.40
2022-12-20T00:45:47.612Z,13.70
2022-12-20T00:48:18.275Z,16.60
2022-12-20T00:50:47.877Z,14.00
2022-12-20T00:53:21.148Z,13.50
2022-12-20T00:55:56.712Z,14.00
2022-12-20T00:58:27.458Z,13.80
2022-12-20T01:00:57.320Z,15.60
2022-12-20T01:03:27.593Z,15.30
2022-12-20T01:06:02.400Z,12.10
2022-12-20T01:08:33.104Z,15.30
2022-12-20T01:11:08.324Z,16.20
2022-12-20T01:13:40.165Z,13.70
2022-12-20T01:16:21.102Z,15.70
2022-12-20T01:18:51.965Z,15.10
2022-12-20T01:21:23.548Z,13.30
2022-12-20T01:23:52.750Z,13.80
2022-12-20T01:26:25.450Z,14.50
2022-12-20T01:28:57.944Z,13.50
2022-12-20T01:31:29.376Z,13.20
2022-12-20T01:34:01.266Z,14.70
2022-12-20T01:36:35.778Z,14.10
2022-12-20T01:41:40.039Z,14.30
2022-12-20T01:44:35.488Z,13.30
2022-12-20T01:47:04.949Z,15.40
2022-12-20T01:49:43.639Z,13.40
2022-12-20T01:52:21.232Z,15.10
2022-12-20T01:55:11.307Z,15.40
2022-12-20T01:57:52.133Z,13.90
2022-12-20T02:00:21.788Z,15.30
2022-12-20T02:02:51.330Z,14.30
2022-12-20T02:05:24.175Z,13.40
2022-12-20T02:07:57.018Z,13.00
2022-12-20T02:10:50.899Z,13.30
2022-12-20T02:14:02.906Z,14.70
2022-12-20T02:16:39.175Z,13.10
2022-12-20T02:19:37.709Z,14.30
2022-12-20T02:22:28.587Z,13.60
2022-12-20T02:25:38.957Z,13.20
2022-12-20T02:28:37.113Z,13.10
2022-12-20T02:31:12.364Z,12.80
2022-12-20T02:33:50.993Z,15.90
2022-12-20T02:36:20.207Z,14.90
2022-12-20T02:38:51.655Z,14.60
2022-12-20T02:41:32.948Z,18.30
2022-12-20T02:44:50.454Z,17.90
2022-12-20T02:47:25.712Z,15.30
2022-12-20T02:49:59.413Z,16.30
2022-12-20T02:52:31.581Z,17.90
2022-12-20T02:55:01.803Z,16.20
2022-12-20T02:57:46.176Z,16.50
2022-12-20T03:00:19.900Z,18.00
2022-12-20T03:03:10.495Z,14.30
2022-12-20T03:05:47.536Z,17.00
2022-12-20T03:08:19.811Z,19.30
2022-12-20T03:10:49.213Z,17.10
2022-12-20T03:13:20.786Z,19.30
2022-12-20T03:15:54.095Z,18.10
2022-12-20T03:18:23.293Z,21.20
2022-12-20T03:20:55.203Z,19.60
2022-12-20T03:23:25.698Z,20.00
2022-12-20T03:25:54.973Z,23.10
2022-12-20T03:28:46.677Z,19.90
2022-12-20T03:31:22.405Z,20.70
2022-12-20T03:33:54.040Z,21.80
2022-12-20T03:36:24.547Z,21.30
2022-12-20T03:38:58.986Z,20.30
2022-12-20T03:41:29.994Z,19.40
2022-12-20T03:48:32.680Z,20.10
2022-12-20T03:51:04.377Z,21.10
2022-12-20T03:53:34.104Z,20.90
2022-12-20T03:56:05.680Z,21.50
2022-12-20T03:58:35.900Z,21.10
2022-12-20T04:01:19.656Z,23.40
2022-12-20T04:03:49.362Z,23.30
2022-12-20T04:06:21.415Z,22.40
2022-12-20T04:08:50.875Z,21.60
2022-12-20T04:11:25.885Z,20.50
2022-12-20T04:14:04.913Z,20.50
2022-12-20T04:16:36.121Z,21.80
2022-12-20T04:19:06.488Z,19.50
2022-12-20T04:21:43.241Z,23.00
2022-12-20T04:24:13.549Z,19.60
2022-12-20T04:26:50.042Z,19.70
2022-12-20T04:29:19.190Z,20.60
2022-12-20T04:31:48.988Z,20.00
2022-12-20T04:34:18.212Z,20.80
2022-12-20T04:36:47.195Z,19.00
2022-12-20T04:39:23.692Z,20.90
2022-12-20T04:42:10.222Z,20.40
2022-12-20T04:45:54.787Z,23.00
2022-12-20T04:48:56.378Z,20.80
2022-12-20T04:51:22.250Z,20.50
2022-12-20T04:53:55.585Z,20.50
2022-12-20T04:56:35.706Z,19.80
2022-12-20T04:59:11.937Z,19.00
2022-12-20T05:01:42.721Z,19.50
2022-12-20T05:04:16.893Z,23.70
2022-12-20T05:06:46.879Z,19.60
2022-12-20T05:09:16.279Z,20.70
2022-12-20T05:11:47.803Z,17.60
2022-12-20T05:14:16.958Z,20.90
2022-12-20T05:16:46.109Z,19.50
2022-12-20T05:19:17.145Z,18.70
2022-12-20T05:22:06.363Z,19.70
2022-12-20T05:24:56.585Z,21.20
2022-12-20T05:27:35.245Z,19.90
2022-12-20T05:30:11.800Z,18.40
2022-12-20T05:32:46.027Z,20.80
2022-12-20T05:35:15.361Z,18.50
2022-12-20T05:37:45.837Z,19.60
2022-12-20T05:40:19.667Z,17.60
2022-12-20T05:43:15.961Z,16.80
2022-12-20T05:45:51.627Z,20.10
2022-12-20T05:48:25.885Z,17.50
2022-12-20T05:50:55.387Z,18.90
2022-12-20T05:53:30.832Z,17.40
2022-12-20T05:56:04.199Z,18.20
2022-12-20T05:58:37.323Z,18.00
2022-12-20T06:01:10.285Z,18.30
2022-12-20T06:03:41.311Z,19.50
2022-12-20T06:06:18.742Z,18.50
2022-12-20T06:08:50.701Z,17.40
2022-12-20T06:11:34.544Z,17.30
2022-12-20T06:14:11.051Z,19.30
2022-12-20T06:16:47.209Z,18.30
2022-12-20T06:19:21.819Z,17.80
2022-12-20T06:21:55.614Z,19.40
2022-12-20T06:24:36.109Z,18.90
2022-12-20T06:27:07.416Z,19.80
2022-12-20T06:29:38.275Z,19.00
2022-12-20T06:32:11.986Z,18.50
2022-12-20T06:34:43.509Z,18.40
2022-12-20T06:37:16.308Z,17.60
2022-12-20T06:39:47.206Z,18.70
2022-12-20T07:14:02.139Z,17.20
2022-12-20T07:16:32.627Z,21.00
2022-12-20T07:19:02.900Z,18.50
2022-12-20T07:21:34.440Z,19.90
2022-12-20T07:24:05.045Z,16.00
2022-12-20T07:26:34.109Z,17.10
2022-12-20T07:29:11.869Z,16.70
2022-12-20T07:31:44.626Z,16.70
2022-12-20T07:34:14.303Z,17.50
2022-12-20T07:36:45.168Z,17.80
2022-12-20T07:39:14.578Z,16.60
2022-12-20T07:41:45.411Z,18.80
2022-12-20T07:48:54.633Z,17.40
2022-12-20T07:51:53.507Z,19.40
2022-12-20T07:54:34.132Z,20.60
2022-12-20T07:57:14.736Z,21.80
2022-12-20T07:59:51.624Z,17.90
2022-12-20T08:02:34.979Z,17.80
2022-12-20T08:05:14.584Z,18.00
2022-12-20T08:07:47.221Z,18.30
2022-12-20T08:10:20.326Z,21.90
2022-12-20T08:12:51.900Z,22.30
2022-12-20T08:15:23.442Z,16.80
2022-12-20T08:17:53.991Z,22.70
2022-12-20T08:20:23.626Z,19.40
2022-12-20T08:22:56.796Z,18.30
2022-12-20T08:25:34.547Z,21.40
2022-12-20T08:28:10.407Z,18.70
2022-12-20T08:30:40.911Z,19.80
2022-12-20T08:33:10.417Z,20.10
2022-12-20T08:35:39.950Z,20.10
2022-12-20T08:38:09.409Z,18.40
2022-12-20T08:40:39.972Z,19.10
2022-12-20T08:47:30.579Z,19.00
2022-12-20T08:49:59.830Z,17.40
2022-12-20T08:52:30.092Z,20.20
2022-12-20T08:55:01.487Z,17.90
2022-12-20T08:57:31.280Z,19.30
2022-12-20T09:00:00.378Z,17.30
2022-12-20T09:02:30.104Z,19.00
2022-12-20T09:04:59.514Z,18.60
2022-12-20T09:07:29.291Z,17.00
2022-12-20T09:09:58.497Z,17.10
2022-12-20T09:12:27.753Z,20.00
2022-12-20T09:14:56.974Z,18.90
2022-12-20T09:17:26.295Z,21.40
2022-12-20T09:19:55.646Z,18.30
2022-12-20T09:22:24.828Z,18.60
2022-12-20T09:24:53.999Z,21.10
2022-12-20T09:27:23.470Z,19.60
2022-12-20T09:29:52.594Z,17.10
2022-12-20T09:32:21.620Z,21.80
2022-12-20T09:34:50.609Z,18.20
2022-12-20T09:37:44.987Z,18.90
2022-12-20T09:40:22.635Z,20.50
2022-12-20T09:47:38.590Z,19.90
2022-12-20T09:50:08.905Z,17.90
2022-12-20T09:52:52.739Z,19.30
2022-12-20T09:55:46.270Z,20.20
2022-12-20T09:58:36.853Z,19.70
2022-12-20T10:01:27.757Z,19.30
2022-12-20T10:04:04.035Z,19.70
2022-12-20T10:06:53.763Z,17.00
2022-12-20T10:10:33.389Z,21.20
2022-12-20T10:14:01.199Z,18.10
2022-12-20T10:16:45.809Z,17.60
2022-12-20T10:22:13.729Z,19.00
2022-12-20T10:24:53.419Z,21.10
2022-12-20T10:27:39.220Z,18.80
2022-12-20T10:30:22.144Z,21.20
2022-12-20T10:32:58.909Z,18.90
2022-12-20T10:38:09.194Z,21.40
2022-12-20T10:41:22.233Z,21.10
2022-12-20T10:48:30.303Z,30.60
2022-12-20T10:51:24.293Z,20.20
2022-12-20T10:53:54.121Z,20.70
2022-12-20T10:57:24.192Z,23.70
2022-12-20T11:00:02.965Z,20.20
2022-12-20T11:02:42.310Z,19.20
2022-12-20T11:05:32.735Z,22.30
2022-12-20T11:08:37.688Z,20.00
2022-12-20T11:11:26.184Z,22.40
2022-12-20T11:14:15.021Z,19.10
2022-12-20T11:16:47.649Z,17.70
2022-12-20T11:19:18.684Z,19.80
2022-12-20T11:22:02.859Z,19.70
2022-12-20T11:24:58.252Z,19.70
2022-12-20T11:27:51.309Z,21.30
2022-12-20T11:30:49.825Z,21.80
2022-12-20T11:33:47.601Z,22.00
2022-12-20T11:36:43.295Z,21.60
2022-12-20T11:39:45.475Z,22.20
2022-12-20T11:42:30.261Z,22.20
2022-12-20T11:45:24.168Z,39.30
2022-12-20T11:48:30.390Z,21.20
2022-12-20T11:51:27.266Z,26.40
2022-12-20T11:54:13.127Z,30.60
2022-12-20T11:56:49.544Z,21.60
2022-12-20T11:59:43.851Z,23.90
2022-12-20T12:02:41.563Z,26.40
2022-12-20T12:05:18.224Z,23.30
2022-12-20T12:07:58.205Z,23.90
2022-12-20T12:10:37.270Z,26.40
2022-12-20T12:13:25.554Z,22.80
2022-12-20T12:16:02.280Z,22.60
2022-12-20T12:18:35.646Z,24.50
2022-12-20T12:21:26.327Z,23.60
2022-12-20T12:24:16.271Z,22.40
2022-12-20T12:26:45.985Z,60.20
2022-12-20T12:29:18.991Z,61.20
2022-12-20T12:32:05.265Z,40.80
2022-12-20T12:35:09.416Z,31.40
2022-12-20T12:37:56.201Z,66.60
2022-12-20T12:41:06.983Z,25.20
2022-12-20T12:48:16.363Z,19.40
2022-12-20T12:50:49.903Z,21.00
2022-12-20T12:53:31.256Z,20.80
2022-12-20T12:56:45.151Z,22.60
2022-12-20T12:59:33.639Z,22.60
2022-12-20T13:02:14.709Z,24.80
2022-12-20T13:05:26.288Z,38.50
2022-12-20T13:08:18.180Z,22.80
2022-12-20T13:10:57.135Z,25.20
2022-12-20T13:13:27.999Z,136.20
2022-12-20T13:16:09.962Z,25.60
2022-12-20T13:18:55.821Z,26.90
2022-12-20T13:21:38.470Z,37.60
2022-12-20T13:24:38.554Z,53.60
2022-12-20T13:27:30.044Z,27.20
2022-12-20T13:30:22.479Z,27.00
2022-12-20T13:32:51.596Z,32.30
2022-12-20T13:35:26.563Z,24.50
2022-12-20T13:38:02.581Z,44.60
2022-12-20T13:40:48.444Z,20.10
2022-12-20T13:47:43.143Z,25.20
2022-12-20T13:50:26.940Z,35.90
2022-12-20T13:52:58.008Z,27.00
2022-12-20T13:55:40.147Z,38.20
2022-12-20T13:58:18.728Z,57.20
2022-12-20T14:00:50.823Z,76.90
2022-12-20T14:03:27.172Z,57.50
2022-12-20T14:06:04.528Z,48.30
2022-12-20T14:08:43.129Z,52.20
2022-12-20T14:11:16.601Z,66.80
2022-12-20T14:13:58.456Z,65.30
2022-12-20T14:16:30.039Z,174.90
2022-12-20T14:19:07.420Z,103.10
2022-12-20T14:21:44.574Z,39.00
2022-12-20T14:24:18.573Z,26.50
2022-12-20T14:26:51.875Z,24.00
2022-12-20T14:29:32.117Z,35.50
2022-12-20T14:32:01.231Z,37.20
2022-12-20T14:34:38.080Z,48.80
2022-12-20T14:37:26.333Z,51.20
2022-12-20T14:40:09.674Z,86.60
2022-12-20T14:45:11.967Z,84.90
2022-12-20T14:48:17.064Z,55.20
2022-12-20T14:50:54.411Z,75.80
2022-12-20T14:53:30.571Z,108.90
2022-12-20T14:56:02.437Z,87.40
2022-12-20T14:58:34.254Z,54.40
2022-12-20T15:01:21.841Z,104.50
2022-12-20T15:03:59.960Z,86.10
2022-12-20T15:06:34.263Z,83.90
2022-12-20T15:09:05.679Z,60.90
2022-12-20T15:11:37.412Z,55.60
2022-12-20T15:14:37.587Z,65.70
2022-12-20T15:17:16.203Z,104.10
2022-12-20T15:19:45.856Z,66.90
2022-12-20T15:22:20.661Z,88.20
2022-12-20T15:24:51.922Z,60.10
2022-12-20T15:27:21.631Z,48.40
2022-12-20T15:29:54.898Z,76.90
2022-12-20T15:32:30.113Z,71.50
2022-12-20T15:34:59.747Z,69.90
2022-12-20T15:37:29.333Z,74.60
2022-12-20T15:40:01.722Z,95.20
2022-12-20T15:42:30.946Z,41.00
2022-12-20T15:49:30.749Z,40.00
2022-12-20T15:52:02.662Z,84.90
2022-12-20T15:54:37.767Z,49.50
2022-12-20T15:57:12.384Z,36.50
2022-12-20T16:00:01.538Z,44.40
2022-12-20T16:02:40.938Z,30.30
2022-12-20T16:05:14.207Z,79.70
2022-12-20T16:07:44.163Z,36.40
2022-12-20T16:10:16.122Z,37.60
2022-12-20T16:12:47.626Z,33.70
2022-12-20T16:15:23.597Z,57.40
2022-12-20T16:17:54.612Z,82.00
2022-12-20T16:20:27.950Z,52.40
2022-12-20T16:22:57.447Z,47.10
2022-12-20T16:25:37.302Z,34.70
2022-12-20T16:28:09.054Z,49.70
2022-12-20T16:30:38.157Z,43.00
2022-12-20T16:33:08.848Z,57.80
2022-12-20T16:35:38.514Z,76.20
2022-12-20T16:38:10.704Z,38.00
2022-12-20T16:40:41.119Z,70.60
2022-12-20T16:47:43.352Z,50.80
2022-12-20T16:50:13.156Z,55.30
2022-12-20T16:52:44.236Z,79.30
2022-12-20T16:55:19.307Z,30.90
2022-12-20T16:57:49.608Z,26.30
2022-12-20T17:00:25.597Z,35.40
2022-12-20T17:02:54.905Z,39.30
2022-12-20T17:05:30.437Z,38.60
2022-12-20T17:08:03.199Z,103.20
2022-12-20T17:10:34.488Z,53.50
2022-12-20T17:13:05.012Z,66.20
2022-12-20T17:15:34.508Z,79.30
2022-12-20T17:18:06.932Z,56.80
2022-12-20T17:20:37.071Z,62.90
2022-12-20T17:23:12.307Z,28.30
2022-12-20T17:25:48.744Z,33.60
2022-12-20T17:28:21.178Z,32.80
2022-12-20T17:30:50.920Z,50.50
2022-12-20T17:33:21.869Z,41.20
2022-12-20T17:58:54.132Z,72.10
2022-12-20T18:01:35.869Z,44.70
2022-12-20T18:04:09.713Z,35.90
2022-12-20T18:06:43.714Z,38.10
2022-12-20T18:09:16.168Z,49.30
2022-12-20T18:11:47.173Z,43.70
2022-12-20T18:14:18.013Z,75.00
2022-12-20T18:16:48.715Z,54.70
2022-12-20T18:19:20.944Z,42.50
2022-12-20T18:21:51.332Z,57.50
2022-12-20T18:24:21.862Z,44.40
2022-12-20T18:26:52.371Z,35.60
2022-12-20T18:29:22.594Z,39.70
2022-12-20T18:31:51.703Z,77.60
2022-12-20T18:34:22.893Z,69.10
2022-12-20T18:36:54.145Z,40.10
2022-12-20T18:39:24.538Z,45.70
2022-12-20T18:41:56.095Z,50.30
2022-12-20T18:44:25.735Z,59.60
2022-12-20T18:46:57.718Z,69.00
2022-12-20T18:49:27.988Z,80.20
2022-12-20T18:51:59.997Z,67.40
2022-12-20T18:54:30.738Z,66.50
2022-12-20T18:57:00.668Z,35.60
2022-12-20T18:59:33.101Z,93.90
2022-12-20T19:02:04.624Z,73.50
2022-12-20T19:04:35.113Z,53.00
2022-12-20T19:07:05.396Z,50.50
2022-12-20T19:09:36.352Z,51.60
2022-12-20T19:12:06.849Z,49.10
2022-12-20T19:14:38.618Z,104.10
2022-12-20T19:17:08.513Z,71.90
2022-12-20T19:19:39.997Z,75.30
2022-12-20T19:22:10.618Z,58.00
2022-12-20T19:24:41.439Z,119.90
2022-12-20T19:27:13.599Z,72.70
2022-12-20T19:29:43.405Z,52.80
2022-12-20T19:32:14.918Z,76.80
2022-12-20T19:34:45.038Z,55.40
2022-12-20T19:37:17.078Z,51.30
2022-12-20T19:39:48.494Z,98.30
2022-12-20T19:42:25.132Z,73.70
2022-12-20T19:45:02.585Z,56.70
2022-12-20T19:47:38.347Z,66.10
2022-12-20T19:50:09.627Z,45.50
2022-12-20T19:52:41.002Z,37.60
2022-12-20T19:55:11.053Z,49.00
2022-12-20T19:57:42.076Z,41.80
2022-12-20T20:00:11.942Z,31.40
2022-12-20T20:02:44.242Z,59.20
2022-12-20T20:05:15.738Z,30.70
2022-12-20T20:07:45.385Z,67.90
2022-12-20T20:10:14.558Z,52.00
2022-12-20T20:12:45.575Z,40.80
2022-12-20T20:15:14.710Z,46.60
2022-12-20T20:17:46.012Z,38.70
2022-12-20T20:20:16.986Z,41.90
2022-12-20T20:22:48.541Z,32.30
2022-12-20T20:25:19.295Z,62.10
2022-12-20T20:27:49.512Z,78.30
2022-12-20T20:30:21.009Z,42.60
2022-12-20T20:32:51.457Z,67.30
2022-12-20T20:35:23.944Z,43.70
2022-12-20T20:37:55.759Z,43.00
2022-12-20T20:40:28.450Z,123.50
2022-12-20T20:43:00.131Z,36.50
2022-12-20T20:45:31.018Z,53.50
2022-12-20T20:48:05.689Z,74.10
2022-12-20T20:50:36.982Z,39.80
2022-12-20T20:53:07.595Z,33.10
2022-12-20T20:55:39.904Z,29.20
2022-12-20T20:58:09.106Z,33.80
2022-12-20T21:00:40.595Z,32.00
2022-12-20T21:03:12.511Z,24.70
2022-12-20T21:08:35.385Z,31.40
2022-12-20T21:11:06.623Z,26.80
2022-12-20T21:13:36.636Z,41.20
2022-12-20T21:16:10.197Z,26.60
2022-12-20T21:18:39.695Z,29.80
2022-12-20T21:21:11.430Z,29.70
2022-12-20T21:23:45.612Z,29.90
2022-12-20T21:26:17.340Z,25.50
2022-12-20T21:28:47.866Z,32.40
2022-12-20T21:31:19.764Z,25.60
2022-12-20T21:33:49.702Z,25.20
2022-12-20T21:36:20.325Z,25.90
2022-12-20T21:38:51.874Z,28.90
2022-12-20T21:41:24.915Z,33.40
2022-12-20T21:44:22.904Z,24.20
2022-12-20T21:46:53.485Z,25.40
2022-12-20T21:49:22.937Z,28.30
2022-12-20T21:51:56.761Z,27.80
2022-12-20T21:54:26.029Z,30.30
2022-12-20T21:56:55.011Z,25.10
2022-12-20T21:59:24.518Z,26.20
2022-12-20T22:01:56.189Z,24.20
2022-12-20T22:04:26.146Z,25.30
2022-12-20T22:06:55.313Z,33.10
2022-12-20T22:09:25.201Z,23.90
2022-12-20T22:11:55.557Z,26.80
2022-12-20T22:14:26.078Z,22.40
2022-12-20T22:16:56.274Z,21.80
2022-12-20T22:19:25.460Z,20.50
2022-12-20T22:21:58.212Z,21.70
2022-12-20T22:24:29.153Z,20.00
2022-12-20T22:26:59.538Z,22.10
2022-12-20T22:29:30.702Z,23.40
2022-12-20T22:32:01.170Z,25.60
2022-12-20T22:34:30.446Z,24.50
2022-12-20T22:37:00.131Z,29.30
2022-12-20T22:39:29.219Z,25.10
2022-12-20T22:42:00.616Z,45.80
2022-12-20T22:44:29.958Z,26.50
2022-12-20T22:49:45.663Z,27.20
2022-12-20T22:52:16.041Z,25.20
2022-12-20T22:54:47.487Z,89.20
2022-12-20T22:57:17.246Z,23.20
2022-12-20T22:59:47.568Z,29.90
2022-12-20T23:02:18.395Z,33.40
2022-12-20T23:04:51.205Z,22.60
2022-12-20T23:07:21.640Z,25.90
2022-12-20T23:09:51.137Z,24.50
2022-12-20T23:12:38.929Z,23.70
2022-12-20T23:15:31.050Z,22.20
2022-12-20T23:18:00.023Z,64.50
2022-12-20T23:20:47.750Z,28.50
2022-12-20T23:23:16.711Z,38.80
2022-12-20T23:25:48.296Z,41.60
2022-12-20T23:28:17.294Z,32.70
2022-12-20T23:30:46.235Z,43.10
2022-12-20T23:33:15.573Z,23.50
2022-12-20T23:35:48.433Z,28.60
2022-12-20T23:38:17.847Z,42.60
2022-12-20T23:40:47.161Z,22.20
2022-12-20T23:43:17.423Z,20.70
2022-12-20T23:45:46.588Z,21.10
2022-12-20T23:48:17.934Z,23.20
2022-12-20T23:50:56.363Z,21.20
2022-12-20T23:53:27.575Z,21.80
2022-12-20T23:55:58.094Z,23.60
2022-12-20T23:58:28.272Z,23.00
